Time;durP1;ratioP1;P1;durP2;ratioP2;P2;SDS_P1;SDS_P2;PMS_P1;PMS_P2;Temp;Humidity;BMP_temperature;BMP_pressure;BME280_temperature;BME280_humidity;BME280_pressure;Samples;Min_cycle;Max_cycle;Signal;HPM_P1;HPM_P2
2023/05/03 00:04:45;;;;;;;6.00;2.50;;;;;;;10.58;62.95;100153.20;436016;1254;140638;-59
2023/05/03 00:14:51;;;;;;;4.10;2.80;;;;;;;10.41;63.37;100154.95;440104;1250;139610;-58
2023/05/03 00:24:56;;;;;;;5.90;3.30;;;;;;;10.25;63.85;100152.63;436386;1254;139902;-60
2023/05/03 00:35:02;;;;;;;4.70;3.00;;;;;;;10.22;64.35;100155.78;436314;1251;139742;-59
2023/05/03 00:45:10;;;;;;;5.80;3.90;;;;;;;10.22;64.77;100157.52;436695;1251;140631;-59
2023/05/03 00:55:17;;;;;;;5.90;5.10;;;;;;;10.16;65.29;100160.27;436765;1250;139345;-60
2023/05/03 01:05:27;;;;;;;6.40;4.70;;;;;;;10.08;66.76;100160.32;436874;1251;139666;-59
2023/05/03 01:15:45;;;;;;;8.20;4.90;;;;;;;10.04;67.79;100170.54;437749;1250;139679;-61
2023/05/03 01:25:54;;;;;;;8.10;6.20;;;;;;;9.94;68.37;100165.10;437119;1250;139461;-60
2023/05/03 01:36:05;;;;;;;7.80;5.10;;;;;;;9.89;68.94;100178.15;436400;1254;140272;-61
2023/05/03 01:46:11;;;;;;;5.70;4.40;;;;;;;9.80;69.11;100187.48;436194;1254;140088;-60
2023/05/03 01:56:17;;;;;;;5.50;4.30;;;;;;;9.67;68.48;100189.56;436354;1250;141196;-60
2023/05/03 02:06:24;;;;;;;6.50;3.90;;;;;;;9.61;68.73;100191.96;435849;1251;139710;-59
2023/05/03 02:16:30;;;;;;;6.70;4.90;;;;;;;9.56;69.03;100195.70;436349;1251;141063;-59
2023/05/03 02:26:36;;;;;;;6.30;4.70;;;;;;;9.50;69.53;100199.48;436757;1251;140757;-58
2023/05/03 02:36:42;;;;;;;7.00;3.70;;;;;;;9.39;69.34;100207.35;436398;1254;139285;-58
2023/05/03 02:46:47;;;;;;;5.00;3.60;;;;;;;9.19;68.84;100217.58;436636;1254;139850;-60
2023/05/03 02:56:53;;;;;;;5.30;3.90;;;;;;;9.08;68.87;100225.09;436451;1251;140969;-60
2023/05/03 03:06:59;;;;;;;8.40;4.40;;;;;;;8.92;68.91;100208.71;436312;1251;139669;-60
2023/05/03 03:17:08;;;;;;;5.20;3.20;;;;;;;8.75;68.65;100206.00;436314;1251;140552;-60
2023/05/03 03:27:14;;;;;;;5.00;3.00;;;;;;;8.63;68.14;100198.88;436404;1250;140197;-60
2023/05/03 03:37:22;;;;;;;6.30;3.30;;;;;;;8.38;68.10;100212.55;436279;1250;139760;-59
2023/05/03 03:47:28;;;;;;;4.90;3.00;;;;;;;8.27;68.59;100232.73;436708;1254;139690;-60
2023/05/03 03:57:33;;;;;;;7.60;4.70;;;;;;;8.39;69.16;100260.64;436578;1251;139918;-59
2023/05/03 04:07:39;;;;;;;8.00;4.40;;;;;;;8.93;69.15;100278.33;436587;1254;139214;-59
2023/05/03 04:17:45;;;;;;;6.30;4.00;;;;;;;9.32;68.75;100291.21;436230;1250;140451;-58
2023/05/03 04:27:51;;;;;;;5.80;4.50;;;;;;;9.43;68.56;100300.33;436365;1254;139503;-59
2023/05/03 04:37:56;;;;;;;7.30;4.00;;;;;;;9.36;68.45;100315.85;436372;1251;139634;-60
2023/05/03 04:48:04;;;;;;;7.10;4.70;;;;;;;9.41;68.65;100325.91;436248;1254;140476;-59
2023/05/03 04:58:10;;;;;;;7.50;4.60;;;;;;;9.67;67.74;100323.48;436003;1254;140146;-59
2023/05/03 05:08:15;;;;;;;8.20;5.00;;;;;;;10.41;67.10;100332.94;436417;1254;139096;-58
2023/05/03 05:18:21;;;;;;;7.30;5.40;;;;;;;10.29;66.73;100343.87;436308;1250;140594;-59
2023/05/03 05:28:28;;;;;;;10.60;6.90;;;;;;;10.19;66.83;100355.05;436262;1251;140432;-60
2023/05/03 05:38:33;;;;;;;6.80;6.00;;;;;;;9.82;67.11;100366.46;435968;1253;140779;-59
2023/05/03 05:48:41;;;;;;;6.90;3.80;;;;;;;9.52;66.89;100387.62;438021;1251;138971;-60
2023/05/03 05:58:46;;;;;;;5.60;3.60;;;;;;;9.05;65.54;100394.96;436212;1254;141315;-60
2023/05/03 06:08:52;;;;;;;6.00;3.80;;;;;;;8.86;64.50;100410.83;436133;1251;139832;-59
2023/05/03 06:18:58;;;;;;;4.80;2.90;;;;;;;8.87;63.36;100421.28;436377;1250;139702;-59
2023/05/03 06:29:04;;;;;;;7.20;3.90;;;;;;;9.19;61.19;100435.22;436295;1255;140433;-59
2023/05/03 06:39:10;;;;;;;6.80;4.60;;;;;;;9.56;60.33;100443.55;436693;1254;139803;-59
2023/05/03 06:49:16;;;;;;;6.70;4.10;;;;;;;9.96;59.36;100449.90;436549;1254;140616;-59
2023/05/03 06:59:22;;;;;;;2.60;2.30;;;;;;;10.48;57.69;100450.22;436321;1250;139602;-59
2023/05/03 07:09:28;;;;;;;2.40;1.50;;;;;;;11.26;55.04;100452.55;436326;1251;141486;-59
2023/05/03 07:19:47;;;;;;;1.90;1.30;;;;;;;11.81;51.96;100449.98;436297;1250;200535;-61
2023/05/03 07:29:53;;;;;;;2.20;1.00;;;;;;;12.55;49.52;100449.71;436361;1251;140235;-60
2023/05/03 07:39:59;;;;;;;1.20;1.10;;;;;;;13.25;47.28;100452.60;436109;1255;139139;-59
2023/05/03 07:50:07;;;;;;;3.40;1.00;;;;;;;14.18;44.97;100460.51;436770;1255;139621;-59
2023/05/03 08:00:16;;;;;;;1.70;1.50;;;;;;;14.87;43.36;100462.66;436959;1255;138487;-60
2023/05/03 08:10:22;;;;;;;2.40;1.60;;;;;;;18.23;42.80;100453.50;437412;1250;139192;-60
2023/05/03 08:20:28;;;;;;;2.10;1.30;;;;;;;21.77;36.81;100441.22;436843;1250;138669;-59
2023/05/03 08:30:34;;;;;;;3.90;1.20;;;;;;;19.25;35.04;100451.27;436669;1255;139176;-59
2023/05/03 08:40:40;;;;;;;3.60;0.90;;;;;;;18.27;35.35;100456.33;436430;1251;138704;-60
2023/05/03 08:50:46;;;;;;;2.30;1.00;;;;;;;17.92;35.54;100461.09;436381;1251;139603;-59
2023/05/03 09:00:52;;;;;;;3.50;1.20;;;;;;;17.93;35.42;100457.61;436507;1254;138649;-60
2023/05/03 09:10:57;;;;;;;2.40;1.50;;;;;;;17.56;35.18;100454.14;436609;1256;138979;-59
2023/05/03 09:21:03;;;;;;;1.90;0.80;;;;;;;15.91;35.32;100467.61;436715;1254;140148;-60
2023/05/03 09:31:09;;;;;;;2.50;1.40;;;;;;;15.22;35.98;100463.83;436628;1254;140273;-60
2023/05/03 09:41:26;;;;;;;1.40;0.90;;;;;;;15.26;35.95;100466.36;437168;1251;141233;-59
2023/05/03 09:51:32;;;;;;;3.30;1.40;;;;;;;15.44;36.01;100461.23;436533;1250;140209;-60
2023/05/03 10:01:38;;;;;;;4.30;1.10;;;;;;;15.72;35.31;100461.43;437092;1252;138593;-60
2023/05/03 10:11:48;;;;;;;2.90;1.10;;;;;;;15.73;35.43;100458.16;436586;1251;140248;-59
2023/05/03 10:22:05;;;;;;;2.40;1.60;;;;;;;15.55;35.27;100457.65;436633;1251;139908;-59
2023/05/03 10:32:31;;;;;;;2.30;1.20;;;;;;;15.04;35.48;100464.73;437080;1251;138743;-60
2023/05/03 10:42:38;;;;;;;4.80;1.70;;;;;;;14.93;35.60;100460.66;436326;1255;138842;-59
2023/05/03 10:52:51;;;;;;;4.20;1.80;;;;;;;14.69;35.96;100460.16;436211;1254;138736;-59
2023/05/03 11:03:27;;;;;;;2.90;1.30;;;;;;;14.49;36.04;100453.38;436848;1254;140620;-59
2023/05/03 11:13:34;;;;;;;5.30;1.60;;;;;;;14.73;35.64;100455.30;436945;1254;139205;-61
2023/05/03 11:23:41;;;;;;;3.20;1.20;;;;;;;15.12;35.48;100463.27;436345;1256;139318;-60
2023/05/03 11:33:48;;;;;;;1.40;1.10;;;;;;;14.65;35.72;100469.40;436353;1255;141281;-61
2023/05/03 11:43:54;;;;;;;2.90;0.90;;;;;;;14.59;35.73;100467.32;436435;1255;140043;-60
2023/05/03 11:54:19;;;;;;;2.80;1.00;;;;;;;14.43;35.16;100466.46;436490;1256;140328;-60
2023/05/03 12:04:32;;;;;;;5.30;2.10;;;;;;;14.87;35.50;100458.79;436336;1251;139731;-59
2023/05/03 12:14:59;;;;;;;2.50;1.20;;;;;;;14.36;35.72;100460.05;436313;1254;139096;-60
2023/05/03 12:25:09;;;;;;;2.40;1.30;;;;;;;14.03;35.87;100453.77;436546;1254;138567;-60
2023/05/03 12:35:17;;;;;;;2.20;1.30;;;;;;;14.32;36.08;100457.50;436603;1257;139295;-59
2023/05/03 12:45:27;;;;;;;2.60;1.50;;;;;;;14.51;35.82;100453.77;436574;1254;139055;-59
2023/05/03 12:55:33;;;;;;;2.80;1.40;;;;;;;14.35;35.63;100440.23;436398;1254;138741;-59
2023/05/03 13:05:45;;;;;;;4.80;2.50;;;;;;;14.20;35.62;100437.36;436434;1251;139215;-59
2023/05/03 13:15:52;;;;;;;1.90;1.40;;;;;;;14.08;35.34;100440.05;436495;1257;138580;-58
2023/05/03 13:25:58;;;;;;;1.50;1.10;;;;;;;14.31;34.93;100427.98;436861;1254;139106;-58
2023/05/03 13:36:04;;;;;;;1.80;1.00;;;;;;;14.10;35.03;100415.82;436681;1254;139611;-58
2023/05/03 13:46:11;;;;;;;3.30;1.80;;;;;;;13.80;35.19;100413.48;436583;1254;139694;-59
2023/05/03 13:56:17;;;;;;;2.10;1.20;;;;;;;13.75;35.09;100408.16;436862;1254;139055;-58
2023/05/03 14:06:23;;;;;;;2.40;1.00;;;;;;;13.81;34.75;100406.53;436675;1254;139726;-59
2023/05/03 14:16:29;;;;;;;1.70;0.80;;;;;;;13.58;34.44;100404.34;436672;1251;140877;-60
2023/05/03 14:26:47;;;;;;;1.20;0.90;;;;;;;13.39;34.21;100398.61;436217;1254;138629;-58
2023/05/03 14:36:52;;;;;;;1.00;0.90;;;;;;;13.34;34.32;100397.68;436429;1253;139054;-60
2023/05/03 14:46:58;;;;;;;1.30;0.90;;;;;;;13.31;34.20;100404.56;437207;1254;138874;-58
2023/05/03 14:57:05;;;;;;;1.40;1.10;;;;;;;13.23;34.07;100403.31;436712;1254;139313;-59
2023/05/03 15:07:11;;;;;;;1.70;0.80;;;;;;;13.20;33.92;100404.20;436810;1254;138587;-59
2023/05/03 15:17:17;;;;;;;1.60;0.70;;;;;;;13.15;33.87;100405.54;436104;1252;139677;-58
2023/05/03 15:27:22;;;;;;;0.80;0.50;;;;;;;13.11;33.30;100402.06;440174;1251;140477;-59
2023/05/03 15:37:35;;;;;;;0.70;0.60;;;;;;;13.11;33.15;100408.23;436383;1251;140279;-59
2023/05/03 15:47:42;;;;;;;1.70;1.50;;;;;;;13.12;33.54;100406.79;436128;1251;140011;-58
2023/05/03 15:57:48;;;;;;;5.30;1.90;;;;;;;13.02;33.90;100405.81;436173;1251;139931;-59
2023/05/03 16:07:53;;;;;;;2.20;1.00;;;;;;;12.95;34.06;100405.02;436431;1251;139120;-59
2023/05/03 16:17:59;;;;;;;1.40;1.00;;;;;;;12.84;34.12;100403.88;436699;1254;139032;-60
2023/05/03 16:28:06;;;;;;;2.70;1.60;;;;;;;12.72;34.25;100402.35;436078;1251;139195;-60
2023/05/03 16:38:11;;;;;;;1.60;1.00;;;;;;;12.61;34.37;100406.70;436893;1251;139668;-57
2023/05/03 16:48:17;;;;;;;2.10;1.10;;;;;;;12.55;34.42;100410.02;436510;1251;139159;-58
2023/05/03 16:58:23;;;;;;;2.90;1.00;;;;;;;12.40;34.59;100412.81;436332;1251;138942;-59
2023/05/03 17:08:29;;;;;;;2.20;1.30;;;;;;;12.25;34.58;100412.64;443309;1250;138614;-60
2023/05/03 17:18:36;;;;;;;1.90;1.70;;;;;;;12.18;34.62;100415.10;436264;1251;138946;-59
2023/05/03 17:28:43;;;;;;;1.40;1.30;;;;;;;12.03;35.13;100419.82;436827;1251;139542;-60
2023/05/03 17:38:48;;;;;;;2.70;1.30;;;;;;;11.77;35.44;100423.52;436795;1254;138956;-59
2023/05/03 17:48:55;;;;;;;3.90;1.20;;;;;;;11.42;35.97;100426.46;437095;1254;140747;-60
2023/05/03 17:59:02;;;;;;;1.60;1.50;;;;;;;11.15;36.37;100429.16;437069;1254;139130;-60
2023/05/03 18:09:08;;;;;;;3.50;2.50;;;;;;;10.79;36.74;100433.63;436753;1251;138849;-60
2023/05/03 18:19:14;;;;;;;8.60;6.10;;;;;;;10.39;37.43;100441.54;436701;1250;140523;-59
2023/05/03 18:29:20;;;;;;;6.80;3.50;;;;;;;10.03;38.21;100446.41;436509;1251;140314;-60
2023/05/03 18:39:26;;;;;;;8.20;5.40;;;;;;;9.75;38.76;100453.89;436378;1250;140630;-59
2023/05/03 18:49:32;;;;;;;6.70;3.20;;;;;;;9.43;39.78;100453.91;436448;1254;138584;-59
2023/05/03 18:59:38;;;;;;;4.70;2.50;;;;;;;8.96;41.82;100457.20;437304;1250;139151;-59
2023/05/03 19:10:01;;;;;;;12.50;3.00;;;;;;;8.48;43.95;100470.16;436447;1254;138404;-62
2023/05/03 19:20:10;;;;;;;8.60;2.60;;;;;;;8.04;45.91;100474.19;436953;1254;165036;-58
2023/05/03 19:30:18;;;;;;;10.60;4.70;;;;;;;7.63;47.40;100480.10;436510;1250;138744;-59
2023/05/03 19:40:24;;;;;;;9.70;6.10;;;;;;;7.25;48.91;100482.37;437240;1250;138553;-60
2023/05/03 19:50:30;;;;;;;7.60;4.90;;;;;;;6.94;49.54;100485.53;437347;1251;138347;-59
2023/05/03 20:00:36;;;;;;;6.30;4.30;;;;;;;6.67;51.38;100482.95;436702;1250;138559;-59
2023/05/03 20:10:42;;;;;;;5.90;5.00;;;;;;;6.36;52.77;100478.73;436397;1250;138767;-58
2023/05/03 20:20:51;;;;;;;9.00;6.00;;;;;;;6.05;53.66;100477.23;436606;1253;138977;-58
2023/05/03 20:30:56;;;;;;;9.50;6.70;;;;;;;5.79;54.65;100475.91;436913;1254;138461;-59
2023/05/03 20:41:02;;;;;;;11.90;7.50;;;;;;;5.53;55.72;100483.12;436581;1251;139516;-59
2023/05/03 20:51:10;;;;;;;12.60;8.00;;;;;;;5.29;56.71;100489.31;436584;1251;140037;-59
2023/05/03 21:01:16;;;;;;;14.70;7.10;;;;;;;5.05;57.39;100489.28;436721;1254;139693;-57
2023/05/03 21:11:22;;;;;;;9.90;6.50;;;;;;;4.84;58.55;100488.43;436868;1250;139988;-58
2023/05/03 21:21:28;;;;;;;9.80;7.20;;;;;;;4.65;59.25;100482.16;436722;1250;138940;-59
2023/05/03 21:31:34;;;;;;;13.20;8.30;;;;;;;4.41;59.95;100473.54;436564;1250;138552;-57
2023/05/03 21:41:42;;;;;;;10.00;6.80;;;;;;;4.26;61.09;100467.84;436851;1254;138463;-59
2023/05/03 21:51:48;;;;;;;8.70;6.60;;;;;;;4.06;61.36;100466.91;437071;1250;139765;-60
2023/05/03 22:01:54;;;;;;;12.20;8.70;;;;;;;3.90;62.33;100474.89;436539;1250;139504;-60
2023/05/03 22:12:00;;;;;;;9.10;7.90;;;;;;;3.75;63.27;100475.90;436374;1250;140580;-59
2023/05/03 22:22:16;;;;;;;12.90;6.80;;;;;;;3.55;64.02;100479.09;436353;1251;139967;-58
2023/05/03 22:32:22;;;;;;;7.70;5.60;;;;;;;3.38;64.53;100482.20;436358;1250;141485;-58
2023/05/03 22:42:28;;;;;;;9.60;7.90;;;;;;;3.16;65.09;100482.28;436998;1250;140151;-58
2023/05/03 22:52:34;;;;;;;18.90;10.80;;;;;;;3.00;65.51;100483.44;436452;1254;139093;-59
2023/05/03 23:02:40;;;;;;;16.90;11.10;;;;;;;2.87;65.81;100481.59;436476;1250;140474;-59
2023/05/03 23:12:46;;;;;;;15.90;10.50;;;;;;;2.77;66.43;100477.27;436613;1250;139437;-59
2023/05/03 23:22:52;;;;;;;13.10;9.00;;;;;;;2.61;66.95;100480.65;436058;1251;141334;-58
2023/05/03 23:32:58;;;;;;;18.90;11.10;;;;;;;2.51;67.58;100473.57;438207;1250;140070;-58
2023/05/03 23:43:05;;;;;;;19.80;11.80;;;;;;;2.37;67.86;100468.23;436658;1251;140431;-57
2023/05/03 23:53:11;;;;;;;18.90;12.70;;;;;;;2.23;68.24;100460.69;436586;1250;141241;-59
